Carver, Minnesota
Current Conditions -  °F | °C
As of 3:53 AM on Sunday 23 Nov 2014 (Local Time) from KFCM Reporting Station
Overcast Overcast  
Wind Chill: 51°   Ceiling: 1100
Heat Index: 51°   Visibility: 7mi
Dew Point: 49°   Wind: 10mph
Humidity: 92%   Direction: 210°SSW
Pressure: 29.43"   Gusts: NA
Location:  44.76°N, 93.63°W
Report Text: KFCM 230953Z AUTO 21009KT 7SM BKN011 OVC015 11/09 A2943 RMK AO2 CIG 008V013 SLP971 T01060094
Loading
Personal Weather Stations






























Interactive Weather Map New forecast layout! Learn more

10-Day Weather Forecast

Advertisements
Track Severe Weather on mobile